sensor_id;sensor_type;location;lat;lon;timestamp;P1;durP1;ratioP1;P2;durP2;ratioP2
39490;SDS011;25175;50.140;18.990;2022-10-31T00:02:59;25.48;;;11.25;;
39490;SDS011;25175;50.140;18.990;2022-10-31T00:06:02;23.88;;;10.80;;
39490;SDS011;25175;50.140;18.990;2022-10-31T00:09:04;25.45;;;11.20;;
39490;SDS011;25175;50.140;18.990;2022-10-31T00:12:06;25.60;;;11.30;;
39490;SDS011;25175;50.140;18.990;2022-10-31T00:15:08;30.00;;;12.00;;
39490;SDS011;25175;50.140;18.990;2022-10-31T00:18:10;30.10;;;12.13;;
39490;SDS011;25175;50.140;18.990;2022-10-31T00:21:14;24.77;;;10.85;;
39490;SDS011;25175;50.140;18.990;2022-10-31T00:24:16;28.17;;;11.43;;
39490;SDS011;25175;50.140;18.990;2022-10-31T00:27:17;29.05;;;12.30;;
39490;SDS011;25175;50.140;18.990;2022-10-31T00:30:20;28.48;;;11.80;;
39490;SDS011;25175;50.140;18.990;2022-10-31T00:33:21;26.27;;;11.77;;
39490;SDS011;25175;50.140;18.990;2022-10-31T00:36:25;29.13;;;12.48;;
39490;SDS011;25175;50.140;18.990;2022-10-31T00:39:26;27.35;;;12.07;;
39490;SDS011;25175;50.140;18.990;2022-10-31T00:42:28;24.35;;;11.57;;
39490;SDS011;25175;50.140;18.990;2022-10-31T00:45:32;32.63;;;12.55;;
39490;SDS011;25175;50.140;18.990;2022-10-31T00:48:34;30.13;;;12.85;;
39490;SDS011;25175;50.140;18.990;2022-10-31T00:51:37;29.08;;;12.82;;
39490;SDS011;25175;50.140;18.990;2022-10-31T00:54:39;30.85;;;13.25;;
39490;SDS011;25175;50.140;18.990;2022-10-31T00:57:41;29.40;;;13.77;;
39490;SDS011;25175;50.140;18.990;2022-10-31T01:00:44;28.92;;;13.95;;
39490;SDS011;25175;50.140;18.990;2022-10-31T01:03:51;34.42;;;14.68;;
39490;SDS011;25175;50.140;18.990;2022-10-31T01:06:54;30.95;;;14.07;;
39490;SDS011;25175;50.140;18.990;2022-10-31T01:09:57;31.77;;;14.68;;
39490;SDS011;25175;50.140;18.990;2022-10-31T01:13:00;32.00;;;13.90;;
39490;SDS011;25175;50.140;18.990;2022-10-31T01:16:03;28.98;;;14.40;;
39490;SDS011;25175;50.140;18.990;2022-10-31T01:19:06;25.50;;;12.32;;
39490;SDS011;25175;50.140;18.990;2022-10-31T01:22:09;28.83;;;12.93;;
39490;SDS011;25175;50.140;18.990;2022-10-31T01:25:11;30.30;;;13.45;;
39490;SDS011;25175;50.140;18.990;2022-10-31T01:28:13;26.88;;;13.20;;
39490;SDS011;25175;50.140;18.990;2022-10-31T01:31:16;32.45;;;13.35;;
39490;SDS011;25175;50.140;18.990;2022-10-31T01:34:19;29.98;;;13.40;;
39490;SDS011;25175;50.140;18.990;2022-10-31T01:37:22;27.10;;;12.45;;
39490;SDS011;25175;50.140;18.990;2022-10-31T01:40:23;28.50;;;12.57;;
39490;SDS011;25175;50.140;18.990;2022-10-31T01:43:30;24.63;;;13.10;;
39490;SDS011;25175;50.140;18.990;2022-10-31T01:46:44;29.65;;;12.75;;
39490;SDS011;25175;50.140;18.990;2022-10-31T01:49:51;27.03;;;12.67;;
39490;SDS011;25175;50.140;18.990;2022-10-31T01:52:57;26.42;;;12.85;;
39490;SDS011;25175;50.140;18.990;2022-10-31T01:56:01;28.75;;;12.05;;
39490;SDS011;25175;50.140;18.990;2022-10-31T01:59:04;25.40;;;11.82;;
39490;SDS011;25175;50.140;18.990;2022-10-31T02:02:15;24.27;;;12.48;;
39490;SDS011;25175;50.140;18.990;2022-10-31T02:05:20;25.20;;;11.50;;
39490;SDS011;25175;50.140;18.990;2022-10-31T02:08:27;27.85;;;12.30;;
39490;SDS011;25175;50.140;18.990;2022-10-31T02:11:30;27.52;;;12.10;;
39490;SDS011;25175;50.140;18.990;2022-10-31T02:14:32;23.88;;;11.75;;
39490;SDS011;25175;50.140;18.990;2022-10-31T02:17:37;30.15;;;12.38;;
39490;SDS011;25175;50.140;18.990;2022-10-31T02:20:41;24.63;;;11.80;;
39490;SDS011;25175;50.140;18.990;2022-10-31T02:27:27;24.15;;;11.23;;
39490;SDS011;25175;50.140;18.990;2022-10-31T02:30:59;27.50;;;12.05;;
39490;SDS011;25175;50.140;18.990;2022-10-31T02:34:09;25.25;;;12.02;;
39490;SDS011;25175;50.140;18.990;2022-10-31T02:37:23;28.27;;;12.27;;
39490;SDS011;25175;50.140;18.990;2022-10-31T02:40:31;34.00;;;13.07;;
39490;SDS011;25175;50.140;18.990;2022-10-31T02:44:00;27.42;;;12.80;;
39490;SDS011;25175;50.140;18.990;2022-10-31T02:47:13;28.67;;;12.40;;
39490;SDS011;25175;50.140;18.990;2022-10-31T02:50:19;28.77;;;12.83;;
39490;SDS011;25175;50.140;18.990;2022-10-31T02:53:24;28.58;;;12.57;;
39490;SDS011;25175;50.140;18.990;2022-10-31T02:56:26;28.65;;;13.68;;
39490;SDS011;25175;50.140;18.990;2022-10-31T02:59:30;30.95;;;14.27;;
39490;SDS011;25175;50.140;18.990;2022-10-31T03:02:46;33.90;;;13.35;;
39490;SDS011;25175;50.140;18.990;2022-10-31T03:05:57;27.73;;;13.88;;
39490;SDS011;25175;50.140;18.990;2022-10-31T03:09:03;34.97;;;14.70;;
39490;SDS011;25175;50.140;18.990;2022-10-31T03:12:15;41.17;;;14.73;;
39490;SDS011;25175;50.140;18.990;2022-10-31T03:15:28;32.72;;;14.82;;
39490;SDS011;25175;50.140;18.990;2022-10-31T03:18:34;32.85;;;15.77;;
39490;SDS011;25175;50.140;18.990;2022-10-31T03:21:42;32.15;;;15.10;;
39490;SDS011;25175;50.140;18.990;2022-10-31T03:24:46;34.22;;;16.08;;
39490;SDS011;25175;50.140;18.990;2022-10-31T03:27:49;34.72;;;16.23;;
39490;SDS011;25175;50.140;18.990;2022-10-31T03:30:52;30.20;;;15.45;;
39490;SDS011;25175;50.140;18.990;2022-10-31T03:33:58;33.78;;;15.75;;
39490;SDS011;25175;50.140;18.990;2022-10-31T03:37:04;37.00;;;15.65;;
39490;SDS011;25175;50.140;18.990;2022-10-31T03:40:11;31.23;;;15.70;;
39490;SDS011;25175;50.140;18.990;2022-10-31T03:43:16;38.55;;;16.67;;
39490;SDS011;25175;50.140;18.990;2022-10-31T03:49:30;33.38;;;15.40;;
39490;SDS011;25175;50.140;18.990;2022-10-31T03:52:33;33.03;;;15.02;;
39490;SDS011;25175;50.140;18.990;2022-10-31T03:55:45;34.60;;;15.73;;
39490;SDS011;25175;50.140;18.990;2022-10-31T03:58:53;32.28;;;15.23;;
39490;SDS011;25175;50.140;18.990;2022-10-31T04:02:03;31.52;;;14.43;;
39490;SDS011;25175;50.140;18.990;2022-10-31T04:05:11;36.72;;;14.30;;
39490;SDS011;25175;50.140;18.990;2022-10-31T04:08:18;35.25;;;14.75;;
39490;SDS011;25175;50.140;18.990;2022-10-31T04:11:27;32.30;;;14.88;;
39490;SDS011;25175;50.140;18.990;2022-10-31T04:14:51;30.02;;;14.93;;
39490;SDS011;25175;50.140;18.990;2022-10-31T04:17:56;38.33;;;16.38;;
39490;SDS011;25175;50.140;18.990;2022-10-31T04:21:03;36.08;;;15.93;;
39490;SDS011;25175;50.140;18.990;2022-10-31T04:24:06;35.03;;;15.68;;
39490;SDS011;25175;50.140;18.990;2022-10-31T04:27:11;36.80;;;16.48;;
39490;SDS011;25175;50.140;18.990;2022-10-31T04:30:13;37.42;;;16.25;;
39490;SDS011;25175;50.140;18.990;2022-10-31T04:33:16;31.23;;;15.73;;
39490;SDS011;25175;50.140;18.990;2022-10-31T04:36:21;26.50;;;13.60;;
39490;SDS011;25175;50.140;18.990;2022-10-31T04:39:23;33.85;;;15.40;;
39490;SDS011;25175;50.140;18.990;2022-10-31T04:42:44;29.20;;;14.32;;
39490;SDS011;25175;50.140;18.990;2022-10-31T04:45:46;50.35;;;15.13;;
39490;SDS011;25175;50.140;18.990;2022-10-31T04:48:48;30.08;;;15.10;;
39490;SDS011;25175;50.140;18.990;2022-10-31T04:51:52;26.98;;;13.93;;
39490;SDS011;25175;50.140;18.990;2022-10-31T04:54:54;31.25;;;15.68;;
39490;SDS011;25175;50.140;18.990;2022-10-31T04:58:16;34.03;;;15.15;;
39490;SDS011;25175;50.140;18.990;2022-10-31T05:01:18;31.83;;;15.23;;
39490;SDS011;25175;50.140;18.990;2022-10-31T05:04:22;32.63;;;15.52;;
39490;SDS011;25175;50.140;18.990;2022-10-31T05:07:26;31.85;;;15.43;;
39490;SDS011;25175;50.140;18.990;2022-10-31T05:10:29;34.63;;;15.05;;
39490;SDS011;25175;50.140;18.990;2022-10-31T05:13:33;33.13;;;15.20;;
39490;SDS011;25175;50.140;18.990;2022-10-31T05:16:41;32.40;;;15.73;;
39490;SDS011;25175;50.140;18.990;2022-10-31T05:20:01;31.92;;;15.65;;
39490;SDS011;25175;50.140;18.990;2022-10-31T05:23:34;31.80;;;15.10;;
39490;SDS011;25175;50.140;18.990;2022-10-31T05:26:37;35.13;;;15.10;;
39490;SDS011;25175;50.140;18.990;2022-10-31T05:29:39;36.08;;;15.23;;
39490;SDS011;25175;50.140;18.990;2022-10-31T05:32:42;32.58;;;15.60;;
39490;SDS011;25175;50.140;18.990;2022-10-31T05:36:12;31.70;;;14.77;;
39490;SDS011;25175;50.140;18.990;2022-10-31T05:39:26;34.78;;;16.02;;
39490;SDS011;25175;50.140;18.990;2022-10-31T05:42:32;32.65;;;14.70;;
39490;SDS011;25175;50.140;18.990;2022-10-31T05:45:34;30.73;;;15.15;;
39490;SDS011;25175;50.140;18.990;2022-10-31T05:48:40;32.22;;;15.57;;
39490;SDS011;25175;50.140;18.990;2022-10-31T05:52:03;29.75;;;15.35;;
39490;SDS011;25175;50.140;18.990;2022-10-31T05:55:16;30.23;;;15.20;;
39490;SDS011;25175;50.140;18.990;2022-10-31T05:58:32;32.42;;;15.23;;
39490;SDS011;25175;50.140;18.990;2022-10-31T06:01:38;34.22;;;15.40;;
39490;SDS011;25175;50.140;18.990;2022-10-31T06:04:54;36.03;;;15.73;;
39490;SDS011;25175;50.140;18.990;2022-10-31T06:07:56;34.60;;;16.17;;
39490;SDS011;25175;50.140;18.990;2022-10-31T06:11:00;31.35;;;16.52;;
39490;SDS011;25175;50.140;18.990;2022-10-31T06:14:21;32.88;;;15.85;;
39490;SDS011;25175;50.140;18.990;2022-10-31T06:17:28;36.67;;;15.95;;
39490;SDS011;25175;50.140;18.990;2022-10-31T06:20:50;33.35;;;15.55;;
39490;SDS011;25175;50.140;18.990;2022-10-31T06:23:53;30.30;;;15.77;;
39490;SDS011;25175;50.140;18.990;2022-10-31T06:27:22;29.45;;;14.90;;
39490;SDS011;25175;50.140;18.990;2022-10-31T06:30:24;27.70;;;14.27;;
39490;SDS011;25175;50.140;18.990;2022-10-31T06:33:26;31.17;;;14.57;;
39490;SDS011;25175;50.140;18.990;2022-10-31T06:36:34;28.15;;;14.57;;
39490;SDS011;25175;50.140;18.990;2022-10-31T06:39:37;32.63;;;13.73;;
39490;SDS011;25175;50.140;18.990;2022-10-31T06:42:43;28.65;;;13.57;;
39490;SDS011;25175;50.140;18.990;2022-10-31T06:45:45;28.85;;;13.43;;
39490;SDS011;25175;50.140;18.990;2022-10-31T06:48:59;32.70;;;13.25;;
39490;SDS011;25175;50.140;18.990;2022-10-31T06:52:11;29.85;;;13.27;;
39490;SDS011;25175;50.140;18.990;2022-10-31T06:55:13;26.23;;;13.30;;
39490;SDS011;25175;50.140;18.990;2022-10-31T06:58:17;32.65;;;13.93;;
39490;SDS011;25175;50.140;18.990;2022-10-31T07:01:20;30.13;;;12.27;;
39490;SDS011;25175;50.140;18.990;2022-10-31T07:04:22;20.63;;;11.05;;
39490;SDS011;25175;50.140;18.990;2022-10-31T07:07:25;27.73;;;12.15;;
39490;SDS011;25175;50.140;18.990;2022-10-31T07:10:28;24.98;;;12.10;;
39490;SDS011;25175;50.140;18.990;2022-10-31T07:13:36;24.23;;;11.57;;
39490;SDS011;25175;50.140;18.990;2022-10-31T07:16:40;26.13;;;11.40;;
39490;SDS011;25175;50.140;18.990;2022-10-31T07:19:45;25.23;;;11.27;;
39490;SDS011;25175;50.140;18.990;2022-10-31T07:22:49;23.42;;;11.20;;
39490;SDS011;25175;50.140;18.990;2022-10-31T07:25:54;24.67;;;11.35;;
39490;SDS011;25175;50.140;18.990;2022-10-31T07:29:01;25.50;;;10.63;;
39490;SDS011;25175;50.140;18.990;2022-10-31T07:32:03;20.95;;;11.43;;
39490;SDS011;25175;50.140;18.990;2022-10-31T07:35:07;27.98;;;11.38;;
39490;SDS011;25175;50.140;18.990;2022-10-31T07:38:28;24.67;;;12.05;;
39490;SDS011;25175;50.140;18.990;2022-10-31T07:41:30;23.38;;;11.40;;
39490;SDS011;25175;50.140;18.990;2022-10-31T07:44:33;27.05;;;12.25;;
39490;SDS011;25175;50.140;18.990;2022-10-31T07:47:54;25.98;;;11.23;;
39490;SDS011;25175;50.140;18.990;2022-10-31T07:51:14;26.25;;;11.20;;
39490;SDS011;25175;50.140;18.990;2022-10-31T07:54:34;22.95;;;10.50;;
39490;SDS011;25175;50.140;18.990;2022-10-31T07:57:36;25.73;;;11.80;;
39490;SDS011;25175;50.140;18.990;2022-10-31T08:00:40;25.95;;;10.43;;
39490;SDS011;25175;50.140;18.990;2022-10-31T08:03:45;21.35;;;10.68;;
39490;SDS011;25175;50.140;18.990;2022-10-31T08:07:05;27.42;;;10.45;;
39490;SDS011;25175;50.140;18.990;2022-10-31T08:10:10;24.85;;;11.18;;
39490;SDS011;25175;50.140;18.990;2022-10-31T08:13:12;21.58;;;10.55;;
39490;SDS011;25175;50.140;18.990;2022-10-31T08:19:30;20.98;;;10.60;;
39490;SDS011;25175;50.140;18.990;2022-10-31T08:22:32;22.30;;;10.40;;
39490;SDS011;25175;50.140;18.990;2022-10-31T08:25:35;20.63;;;9.50;;
39490;SDS011;25175;50.140;18.990;2022-10-31T08:28:37;21.65;;;10.77;;
39490;SDS011;25175;50.140;18.990;2022-10-31T08:31:41;22.95;;;10.38;;
39490;SDS011;25175;50.140;18.990;2022-10-31T08:35:01;26.75;;;10.55;;
39490;SDS011;25175;50.140;18.990;2022-10-31T08:38:22;25.33;;;10.98;;
39490;SDS011;25175;50.140;18.990;2022-10-31T08:41:23;21.55;;;10.15;;
39490;SDS011;25175;50.140;18.990;2022-10-31T08:44:26;21.00;;;9.05;;
39490;SDS011;25175;50.140;18.990;2022-10-31T08:47:29;20.77;;;9.13;;
39490;SDS011;25175;50.140;18.990;2022-10-31T08:50:33;27.20;;;9.52;;
39490;SDS011;25175;50.140;18.990;2022-10-31T08:53:36;20.98;;;9.38;;
39490;SDS011;25175;50.140;18.990;2022-10-31T08:56:57;20.45;;;9.57;;
39490;SDS011;25175;50.140;18.990;2022-10-31T09:00:14;23.15;;;9.60;;
39490;SDS011;25175;50.140;18.990;2022-10-31T09:03:36;22.90;;;9.57;;
39490;SDS011;25175;50.140;18.990;2022-10-31T09:06:38;20.58;;;9.25;;
39490;SDS011;25175;50.140;18.990;2022-10-31T09:09:40;22.50;;;9.52;;
39490;SDS011;25175;50.140;18.990;2022-10-31T09:12:43;23.73;;;9.90;;
39490;SDS011;25175;50.140;18.990;2022-10-31T09:16:03;21.70;;;8.60;;
39490;SDS011;25175;50.140;18.990;2022-10-31T09:19:09;19.48;;;8.50;;
39490;SDS011;25175;50.140;18.990;2022-10-31T09:22:11;23.05;;;8.48;;
39490;SDS011;25175;50.140;18.990;2022-10-31T09:25:13;24.17;;;8.50;;
39490;SDS011;25175;50.140;18.990;2022-10-31T09:31:23;21.83;;;9.30;;
39490;SDS011;25175;50.140;18.990;2022-10-31T09:34:34;23.45;;;9.07;;
39490;SDS011;25175;50.140;18.990;2022-10-31T09:37:53;24.13;;;9.07;;
39490;SDS011;25175;50.140;18.990;2022-10-31T09:40:57;24.83;;;8.70;;
39490;SDS011;25175;50.140;18.990;2022-10-31T09:44:07;27.45;;;9.38;;
39490;SDS011;25175;50.140;18.990;2022-10-31T09:47:22;22.20;;;9.20;;
39490;SDS011;25175;50.140;18.990;2022-10-31T09:51:03;24.48;;;9.80;;
39490;SDS011;25175;50.140;18.990;2022-10-31T09:54:20;22.48;;;9.90;;
39490;SDS011;25175;50.140;18.990;2022-10-31T09:57:28;30.65;;;10.07;;
39490;SDS011;25175;50.140;18.990;2022-10-31T10:00:34;24.52;;;9.93;;
39490;SDS011;25175;50.140;18.990;2022-10-31T10:03:38;23.63;;;10.23;;
39490;SDS011;25175;50.140;18.990;2022-10-31T10:07:11;22.35;;;9.40;;
39490;SDS011;25175;50.140;18.990;2022-10-31T10:10:20;25.35;;;9.88;;
39490;SDS011;25175;50.140;18.990;2022-10-31T10:14:03;25.70;;;9.38;;
39490;SDS011;25175;50.140;18.990;2022-10-31T10:17:15;27.60;;;10.38;;
39490;SDS011;25175;50.140;18.990;2022-10-31T10:20:26;22.48;;;9.50;;
39490;SDS011;25175;50.140;18.990;2022-10-31T10:23:42;30.23;;;9.13;;
39490;SDS011;25175;50.140;18.990;2022-10-31T10:26:55;22.83;;;8.50;;
39490;SDS011;25175;50.140;18.990;2022-10-31T10:30:13;23.00;;;9.25;;
39490;SDS011;25175;50.140;18.990;2022-10-31T10:33:19;25.23;;;8.77;;
39490;SDS011;25175;50.140;18.990;2022-10-31T10:36:25;23.33;;;8.90;;
39490;SDS011;25175;50.140;18.990;2022-10-31T10:39:37;24.27;;;9.57;;
39490;SDS011;25175;50.140;18.990;2022-10-31T10:42:43;29.08;;;9.90;;
39490;SDS011;25175;50.140;18.990;2022-10-31T10:46:16;24.33;;;9.40;;
39490;SDS011;25175;50.140;18.990;2022-10-31T10:49:38;27.25;;;9.35;;
39490;SDS011;25175;50.140;18.990;2022-10-31T10:52:53;30.58;;;9.95;;
39490;SDS011;25175;50.140;18.990;2022-10-31T10:56:08;19.55;;;8.57;;
39490;SDS011;25175;50.140;18.990;2022-10-31T10:59:17;28.38;;;8.57;;
39490;SDS011;25175;50.140;18.990;2022-10-31T11:02:22;22.95;;;9.35;;
39490;SDS011;25175;50.140;18.990;2022-10-31T11:05:28;21.80;;;9.07;;
39490;SDS011;25175;50.140;18.990;2022-10-31T11:08:35;32.30;;;9.68;;
39490;SDS011;25175;50.140;18.990;2022-10-31T11:11:39;34.50;;;10.48;;
39490;SDS011;25175;50.140;18.990;2022-10-31T11:14:43;20.40;;;9.60;;
39490;SDS011;25175;50.140;18.990;2022-10-31T11:17:48;23.95;;;9.32;;
39490;SDS011;25175;50.140;18.990;2022-10-31T11:20:53;27.33;;;9.45;;
39490;SDS011;25175;50.140;18.990;2022-10-31T11:24:07;20.02;;;8.32;;
39490;SDS011;25175;50.140;18.990;2022-10-31T11:27:20;22.33;;;9.25;;
39490;SDS011;25175;50.140;18.990;2022-10-31T11:30:24;20.33;;;8.38;;
39490;SDS011;25175;50.140;18.990;2022-10-31T11:33:29;23.02;;;8.88;;
39490;SDS011;25175;50.140;18.990;2022-10-31T11:36:33;23.25;;;8.90;;
39490;SDS011;25175;50.140;18.990;2022-10-31T11:39:39;23.13;;;8.43;;
39490;SDS011;25175;50.140;18.990;2022-10-31T11:42:45;31.10;;;9.05;;
39490;SDS011;25175;50.140;18.990;2022-10-31T11:45:48;27.85;;;8.95;;
39490;SDS011;25175;50.140;18.990;2022-10-31T11:48:50;29.35;;;9.10;;
39490;SDS011;25175;50.140;18.990;2022-10-31T11:51:56;23.67;;;8.68;;
39490;SDS011;25175;50.140;18.990;2022-10-31T11:55:00;24.90;;;8.38;;
39490;SDS011;25175;50.140;18.990;2022-10-31T11:58:23;25.67;;;7.85;;
39490;SDS011;25175;50.140;18.990;2022-10-31T12:01:26;18.98;;;7.85;;
39490;SDS011;25175;50.140;18.990;2022-10-31T12:04:33;27.48;;;9.23;;
39490;SDS011;25175;50.140;18.990;2022-10-31T12:07:40;21.73;;;7.88;;
39490;SDS011;25175;50.140;18.990;2022-10-31T12:10:46;25.98;;;7.60;;
39490;SDS011;25175;50.140;18.990;2022-10-31T12:14:00;20.92;;;7.70;;
39490;SDS011;25175;50.140;18.990;2022-10-31T12:17:13;18.20;;;7.45;;
39490;SDS011;25175;50.140;18.990;2022-10-31T12:20:20;29.02;;;7.50;;
39490;SDS011;25175;50.140;18.990;2022-10-31T12:23:30;21.10;;;7.35;;
39490;SDS011;25175;50.140;18.990;2022-10-31T12:26:42;23.98;;;8.52;;
39490;SDS011;25175;50.140;18.990;2022-10-31T12:30:12;18.38;;;7.35;;
39490;SDS011;25175;50.140;18.990;2022-10-31T12:33:23;24.85;;;6.97;;
39490;SDS011;25175;50.140;18.990;2022-10-31T12:36:41;22.02;;;6.47;;
39490;SDS011;25175;50.140;18.990;2022-10-31T12:39:54;16.42;;;6.25;;
39490;SDS011;25175;50.140;18.990;2022-10-31T12:43:09;16.63;;;6.35;;
39490;SDS011;25175;50.140;18.990;2022-10-31T12:46:25;14.77;;;5.90;;
39490;SDS011;25175;50.140;18.990;2022-10-31T12:49:41;16.45;;;5.80;;
39490;SDS011;25175;50.140;18.990;2022-10-31T12:52:56;17.63;;;6.45;;
39490;SDS011;25175;50.140;18.990;2022-10-31T12:56:10;20.40;;;6.57;;
39490;SDS011;25175;50.140;18.990;2022-10-31T12:59:28;19.92;;;6.57;;
39490;SDS011;25175;50.140;18.990;2022-10-31T13:02:35;23.13;;;5.90;;
39490;SDS011;25175;50.140;18.990;2022-10-31T13:05:41;24.80;;;6.55;;
39490;SDS011;25175;50.140;18.990;2022-10-31T13:08:47;17.08;;;6.55;;
39490;SDS011;25175;50.140;18.990;2022-10-31T13:11:53;22.95;;;6.47;;
39490;SDS011;25175;50.140;18.990;2022-10-31T13:15:02;15.48;;;5.72;;
39490;SDS011;25175;50.140;18.990;2022-10-31T13:18:21;18.10;;;5.43;;
39490;SDS011;25175;50.140;18.990;2022-10-31T13:21:30;19.73;;;5.68;;
39490;SDS011;25175;50.140;18.990;2022-10-31T13:24:39;17.65;;;5.95;;
39490;SDS011;25175;50.140;18.990;2022-10-31T13:27:45;15.18;;;6.07;;
39490;SDS011;25175;50.140;18.990;2022-10-31T13:30:52;17.67;;;6.10;;
39490;SDS011;25175;50.140;18.990;2022-10-31T13:33:56;19.00;;;6.45;;
39490;SDS011;25175;50.140;18.990;2022-10-31T13:37:03;17.48;;;6.10;;
39490;SDS011;25175;50.140;18.990;2022-10-31T13:40:13;16.65;;;6.20;;
39490;SDS011;25175;50.140;18.990;2022-10-31T13:43:28;19.85;;;5.95;;
39490;SDS011;25175;50.140;18.990;2022-10-31T13:46:37;14.18;;;5.90;;
39490;SDS011;25175;50.140;18.990;2022-10-31T13:49:41;19.42;;;6.53;;
39490;SDS011;25175;50.140;18.990;2022-10-31T13:52:43;21.42;;;6.43;;
39490;SDS011;25175;50.140;18.990;2022-10-31T13:55:46;19.70;;;7.20;;
39490;SDS011;25175;50.140;18.990;2022-10-31T14:02:22;19.83;;;6.65;;
39490;SDS011;25175;50.140;18.990;2022-10-31T14:05:29;19.20;;;7.50;;
39490;SDS011;25175;50.140;18.990;2022-10-31T14:08:34;29.98;;;7.82;;
39490;SDS011;25175;50.140;18.990;2022-10-31T14:11:39;25.02;;;7.13;;
39490;SDS011;25175;50.140;18.990;2022-10-31T14:14:43;23.65;;;7.63;;
39490;SDS011;25175;50.140;18.990;2022-10-31T14:20:52;18.38;;;6.93;;
39490;SDS011;25175;50.140;18.990;2022-10-31T14:23:54;26.17;;;7.03;;
39490;SDS011;25175;50.140;18.990;2022-10-31T14:26:57;17.27;;;7.35;;
39490;SDS011;25175;50.140;18.990;2022-10-31T14:30:07;21.25;;;7.47;;
39490;SDS011;25175;50.140;18.990;2022-10-31T14:33:16;20.38;;;8.23;;
39490;SDS011;25175;50.140;18.990;2022-10-31T14:36:25;26.27;;;7.63;;
39490;SDS011;25175;50.140;18.990;2022-10-31T14:39:36;15.80;;;7.32;;
39490;SDS011;25175;50.140;18.990;2022-10-31T14:46:06;23.63;;;8.43;;
39490;SDS011;25175;50.140;18.990;2022-10-31T14:49:22;21.27;;;8.73;;
39490;SDS011;25175;50.140;18.990;2022-10-31T14:52:37;30.20;;;10.25;;
39490;SDS011;25175;50.140;18.990;2022-10-31T14:55:41;22.75;;;9.75;;
39490;SDS011;25175;50.140;18.990;2022-10-31T14:58:47;27.95;;;9.63;;
39490;SDS011;25175;50.140;18.990;2022-10-31T15:01:55;39.78;;;11.40;;
39490;SDS011;25175;50.140;18.990;2022-10-31T15:05:01;25.73;;;9.82;;
39490;SDS011;25175;50.140;18.990;2022-10-31T15:08:13;29.70;;;10.38;;
39490;SDS011;25175;50.140;18.990;2022-10-31T15:11:27;29.25;;;11.10;;
39490;SDS011;25175;50.140;18.990;2022-10-31T15:14:30;26.73;;;11.75;;
39490;SDS011;25175;50.140;18.990;2022-10-31T15:17:32;46.42;;;13.98;;
39490;SDS011;25175;50.140;18.990;2022-10-31T15:20:36;43.17;;;14.15;;
39490;SDS011;25175;50.140;18.990;2022-10-31T15:23:45;50.35;;;16.48;;
39490;SDS011;25175;50.140;18.990;2022-10-31T15:26:48;42.95;;;15.32;;
39490;SDS011;25175;50.140;18.990;2022-10-31T15:29:52;40.58;;;13.05;;
39490;SDS011;25175;50.140;18.990;2022-10-31T15:32:55;35.90;;;11.55;;
39490;SDS011;25175;50.140;18.990;2022-10-31T15:35:58;34.67;;;11.13;;
39490;SDS011;25175;50.140;18.990;2022-10-31T15:39:02;32.38;;;12.10;;
39490;SDS011;25175;50.140;18.990;2022-10-31T15:42:04;29.42;;;10.93;;
39490;SDS011;25175;50.140;18.990;2022-10-31T15:45:18;34.20;;;13.10;;
39490;SDS011;25175;50.140;18.990;2022-10-31T15:48:23;53.80;;;18.27;;
39490;SDS011;25175;50.140;18.990;2022-10-31T15:51:26;53.60;;;17.10;;
39490;SDS011;25175;50.140;18.990;2022-10-31T15:54:31;44.72;;;16.70;;
39490;SDS011;25175;50.140;18.990;2022-10-31T15:57:34;45.15;;;16.60;;
39490;SDS011;25175;50.140;18.990;2022-10-31T16:00:42;39.03;;;12.88;;
39490;SDS011;25175;50.140;18.990;2022-10-31T16:03:54;27.73;;;11.68;;
39490;SDS011;25175;50.140;18.990;2022-10-31T16:07:00;37.33;;;13.23;;
39490;SDS011;25175;50.140;18.990;2022-10-31T16:10:05;46.53;;;17.92;;
39490;SDS011;25175;50.140;18.990;2022-10-31T16:13:07;41.78;;;17.33;;
39490;SDS011;25175;50.140;18.990;2022-10-31T16:16:11;40.60;;;16.67;;
39490;SDS011;25175;50.140;18.990;2022-10-31T16:19:16;46.33;;;18.00;;
39490;SDS011;25175;50.140;18.990;2022-10-31T16:22:21;51.83;;;17.37;;
39490;SDS011;25175;50.140;18.990;2022-10-31T16:25:29;43.97;;;16.88;;
39490;SDS011;25175;50.140;18.990;2022-10-31T16:28:35;45.53;;;17.48;;
39490;SDS011;25175;50.140;18.990;2022-10-31T16:31:38;55.10;;;20.90;;
39490;SDS011;25175;50.140;18.990;2022-10-31T16:34:41;46.58;;;19.27;;
39490;SDS011;25175;50.140;18.990;2022-10-31T16:37:43;47.83;;;19.05;;
39490;SDS011;25175;50.140;18.990;2022-10-31T16:40:46;56.42;;;23.00;;
39490;SDS011;25175;50.140;18.990;2022-10-31T16:43:49;57.80;;;22.02;;
39490;SDS011;25175;50.140;18.990;2022-10-31T16:47:01;67.03;;;23.98;;
39490;SDS011;25175;50.140;18.990;2022-10-31T16:50:12;71.80;;;26.63;;
39490;SDS011;25175;50.140;18.990;2022-10-31T16:53:15;89.82;;;29.75;;
39490;SDS011;25175;50.140;18.990;2022-10-31T16:56:20;67.00;;;25.40;;
39490;SDS011;25175;50.140;18.990;2022-10-31T16:59:27;70.85;;;26.15;;
39490;SDS011;25175;50.140;18.990;2022-10-31T17:02:30;75.07;;;26.30;;
39490;SDS011;25175;50.140;18.990;2022-10-31T17:05:32;70.38;;;27.63;;
39490;SDS011;25175;50.140;18.990;2022-10-31T17:08:34;83.22;;;31.40;;
39490;SDS011;25175;50.140;18.990;2022-10-31T17:11:38;88.97;;;34.28;;
39490;SDS011;25175;50.140;18.990;2022-10-31T17:14:45;71.47;;;29.08;;
39490;SDS011;25175;50.140;18.990;2022-10-31T17:17:48;97.43;;;35.80;;
39490;SDS011;25175;50.140;18.990;2022-10-31T17:20:50;103.43;;;37.97;;
39490;SDS011;25175;50.140;18.990;2022-10-31T17:23:57;112.75;;;43.95;;
39490;SDS011;25175;50.140;18.990;2022-10-31T17:27:00;141.27;;;52.83;;
39490;SDS011;25175;50.140;18.990;2022-10-31T17:30:02;147.20;;;55.83;;
39490;SDS011;25175;50.140;18.990;2022-10-31T17:33:04;152.68;;;56.92;;
39490;SDS011;25175;50.140;18.990;2022-10-31T17:36:06;135.32;;;57.67;;
39490;SDS011;25175;50.140;18.990;2022-10-31T17:39:08;150.63;;;59.38;;
39490;SDS011;25175;50.140;18.990;2022-10-31T17:42:12;154.23;;;59.67;;
39490;SDS011;25175;50.140;18.990;2022-10-31T17:45:14;144.75;;;58.25;;
39490;SDS011;25175;50.140;18.990;2022-10-31T17:48:16;167.23;;;59.25;;
39490;SDS011;25175;50.140;18.990;2022-10-31T17:51:18;156.40;;;61.63;;
39490;SDS011;25175;50.140;18.990;2022-10-31T17:54:20;173.85;;;61.70;;
39490;SDS011;25175;50.140;18.990;2022-10-31T17:57:24;115.47;;;45.95;;
39490;SDS011;25175;50.140;18.990;2022-10-31T18:00:26;95.47;;;36.80;;
39490;SDS011;25175;50.140;18.990;2022-10-31T18:03:27;84.45;;;33.22;;
39490;SDS011;25175;50.140;18.990;2022-10-31T18:06:29;91.15;;;36.38;;
39490;SDS011;25175;50.140;18.990;2022-10-31T18:09:31;99.40;;;38.58;;
39490;SDS011;25175;50.140;18.990;2022-10-31T18:12:35;90.25;;;36.50;;
39490;SDS011;25175;50.140;18.990;2022-10-31T18:15:38;88.32;;;36.17;;
39490;SDS011;25175;50.140;18.990;2022-10-31T18:18:40;105.75;;;40.33;;
39490;SDS011;25175;50.140;18.990;2022-10-31T18:21:42;94.43;;;39.63;;
39490;SDS011;25175;50.140;18.990;2022-10-31T18:24:45;114.10;;;42.28;;
39490;SDS011;25175;50.140;18.990;2022-10-31T18:27:48;115.22;;;45.47;;
39490;SDS011;25175;50.140;18.990;2022-10-31T18:30:50;124.03;;;50.13;;